createdAt,value
2019-01-20T00:00:36.281Z,73.92
2019-01-20T00:03:08.138Z,73.94
2019-01-20T00:05:39.960Z,73.88
2019-01-20T00:08:11.950Z,73.49
2019-01-20T00:10:43.790Z,73.08
2019-01-20T00:13:15.765Z,73.13
2019-01-20T00:15:47.922Z,73.11
2019-01-20T00:18:22.544Z,73.33
2019-01-20T00:20:54.429Z,73.33
2019-01-20T00:23:27.882Z,73.13
2019-01-20T00:25:59.734Z,73.43
2019-01-20T00:28:31.594Z,73.17
2019-01-20T00:31:06.300Z,72.88
2019-01-20T00:33:39.262Z,73.07
2019-01-20T00:36:11.110Z,73.45
2019-01-20T00:38:43.082Z,73.62
2019-01-20T00:41:14.952Z,73.51
2019-01-20T00:43:46.811Z,73.32
2019-01-20T00:46:18.641Z,73.52
2019-01-20T00:48:50.493Z,72.63
2019-01-20T00:51:22.739Z,72.10
2019-01-20T00:53:56.308Z,72.71
2019-01-20T00:56:28.177Z,73.91
2019-01-20T00:59:01.317Z,73.73
2019-01-20T01:01:33.177Z,73.92
2019-01-20T01:04:07.335Z,73.60
2019-01-20T01:06:41.774Z,73.50
2019-01-20T01:09:19.029Z,73.30
2019-01-20T01:11:53.008Z,72.74
2019-01-20T01:14:25.953Z,72.63
2019-01-20T01:16:57.790Z,72.19
2019-01-20T01:19:31.851Z,71.78
2019-01-20T01:22:08.472Z,72.08
2019-01-20T01:24:40.321Z,72.37
2019-01-20T01:27:12.212Z,72.91
2019-01-20T01:29:44.072Z,72.50
2019-01-20T01:32:16.854Z,72.89
2019-01-20T01:34:48.831Z,73.42
2019-01-20T01:37:20.697Z,73.24
2019-01-20T01:39:52.537Z,73.93
2019-01-20T01:42:24.376Z,74.24
2019-01-20T01:44:56.227Z,74.16
2019-01-20T01:47:29.017Z,73.71
2019-01-20T01:50:00.915Z,73.29
2019-01-20T01:52:32.767Z,72.90
2019-01-20T01:55:04.643Z,72.68
2019-01-20T01:57:36.526Z,72.60
2019-01-20T02:00:31.482Z,72.77
2019-01-20T02:03:03.339Z,72.57
2019-01-20T02:05:35.150Z,72.90
2019-01-20T02:08:09.164Z,72.82
2019-01-20T02:10:40.990Z,72.79
2019-01-20T02:13:13.412Z,72.52
2019-01-20T02:15:45.234Z,72.68
2019-01-20T02:18:17.082Z,72.13
2019-01-20T02:20:50.323Z,72.13
2019-01-20T02:23:22.186Z,71.91
2019-01-20T02:25:54.032Z,72.07
2019-01-20T02:28:27.257Z,72.04
2019-01-20T02:30:59.081Z,72.46
2019-01-20T02:33:33.710Z,72.71
2019-01-20T02:36:07.977Z,72.75
2019-01-20T02:38:42.591Z,72.81
2019-01-20T02:41:14.420Z,72.89
2019-01-20T02:43:46.299Z,72.54
2019-01-20T02:46:18.118Z,71.46
2019-01-20T02:48:51.840Z,71.34
2019-01-20T02:51:27.231Z,71.19
2019-01-20T02:53:59.003Z,71.75
2019-01-20T02:56:36.074Z,72.03
2019-01-20T02:59:10.277Z,71.99
2019-01-20T03:01:42.434Z,71.81
2019-01-20T03:04:14.374Z,71.64
2019-01-20T03:06:47.896Z,71.69
2019-01-20T03:09:23.618Z,72.03
2019-01-20T03:11:53.460Z,72.00
2019-01-20T03:14:25.453Z,72.07
2019-01-20T03:16:59.016Z,72.20
2019-01-20T03:19:31.293Z,72.34
2019-01-20T03:22:05.190Z,71.95
2019-01-20T03:24:37.057Z,72.60
2019-01-20T03:27:08.885Z,72.70
2019-01-20T03:29:41.876Z,72.50
2019-01-20T03:32:16.233Z,72.17
2019-01-20T03:34:48.093Z,72.18
2019-01-20T03:37:19.960Z,71.67
2019-01-20T03:39:54.576Z,71.18
2019-01-20T03:42:26.414Z,70.88
2019-01-20T03:44:58.255Z,71.14
2019-01-20T03:47:30.092Z,71.25
2019-01-20T03:50:01.965Z,71.78
2019-01-20T03:52:33.804Z,72.19
2019-01-20T03:55:06.569Z,72.61
2019-01-20T03:57:38.429Z,72.59
2019-01-20T04:00:21.364Z,72.59
2019-01-20T04:03:00.601Z,72.19
2019-01-20T04:05:32.421Z,72.60
2019-01-20T04:08:04.301Z,72.69
2019-01-20T04:10:36.144Z,72.06
2019-01-20T04:13:09.505Z,72.29
2019-01-20T04:15:41.344Z,72.71
2019-01-20T04:18:13.197Z,73.08
2019-01-20T04:20:45.060Z,72.95
2019-01-20T04:23:16.886Z,72.60
2019-01-20T04:25:49.043Z,72.92
2019-01-20T04:28:20.869Z,72.51
2019-01-20T04:30:52.729Z,72.24
2019-01-20T04:33:24.584Z,72.07
2019-01-20T04:35:56.422Z,72.24
2019-01-20T04:38:32.576Z,71.76
2019-01-20T04:41:04.913Z,71.00
2019-01-20T04:43:37.869Z,70.84
2019-01-20T04:46:10.792Z,70.88
2019-01-20T04:48:42.667Z,71.20
2019-01-20T04:51:14.625Z,71.36
2019-01-20T04:53:46.858Z,71.78
2019-01-20T04:56:18.750Z,71.41
2019-01-20T04:58:50.672Z,71.68
2019-01-20T05:01:22.491Z,72.02
2019-01-20T05:03:54.325Z,72.23
2019-01-20T05:06:26.173Z,72.71
2019-01-20T05:08:58.024Z,72.83
2019-01-20T05:11:29.862Z,72.86
2019-01-20T05:14:01.705Z,72.74
2019-01-20T05:16:33.610Z,72.85
2019-01-20T05:19:05.459Z,72.45
2019-01-20T05:21:37.328Z,72.52
2019-01-20T05:24:09.187Z,72.63
2019-01-20T05:26:41.025Z,72.14
2019-01-20T05:29:12.901Z,71.79
2019-01-20T05:31:44.755Z,71.90
2019-01-20T05:34:16.617Z,71.97
2019-01-20T05:36:48.455Z,72.19
2019-01-20T05:39:20.326Z,72.00
2019-01-20T05:41:52.161Z,72.23
2019-01-20T05:44:24.098Z,72.43
2019-01-20T05:46:55.950Z,72.32
2019-01-20T05:49:27.837Z,72.60
2019-01-20T05:51:59.687Z,72.83
2019-01-20T05:54:31.518Z,72.39
2019-01-20T05:57:03.574Z,71.87
2019-01-20T05:59:35.417Z,71.76
2019-01-20T06:02:08.560Z,71.33
2019-01-20T06:04:40.381Z,71.44
2019-01-20T06:07:12.227Z,71.12
2019-01-20T06:09:45.725Z,71.58
2019-01-20T06:12:17.577Z,71.79
2019-01-20T06:14:51.944Z,72.02
2019-01-20T06:17:23.796Z,72.02
2019-01-20T06:19:55.632Z,72.92
2019-01-20T06:22:27.550Z,73.10
2019-01-20T06:24:59.389Z,72.89
2019-01-20T06:27:31.267Z,72.56
2019-01-20T06:30:03.108Z,72.28
2019-01-20T06:32:34.978Z,72.51
2019-01-20T06:35:07.092Z,72.80
2019-01-20T06:37:39.247Z,72.68
2019-01-20T06:40:14.919Z,72.70
2019-01-20T06:42:46.780Z,72.57
2019-01-20T06:45:23.022Z,72.80
2019-01-20T06:47:57.204Z,72.84
2019-01-20T06:50:31.473Z,72.59
2019-01-20T06:53:04.882Z,72.64
2019-01-20T06:55:36.770Z,72.75
2019-01-20T06:58:12.508Z,72.72
2019-01-20T07:00:44.477Z,72.71
2019-01-20T07:03:19.353Z,72.73
2019-01-20T07:05:51.428Z,72.78
2019-01-20T07:08:23.286Z,72.77
2019-01-20T07:10:55.165Z,72.83
2019-01-20T07:13:27.033Z,72.12
2019-01-20T07:16:01.795Z,72.17
2019-01-20T07:18:35.408Z,72.19
2019-01-20T07:21:10.216Z,72.76
2019-01-20T07:23:42.114Z,72.93
2019-01-20T07:26:13.949Z,72.61
2019-01-20T07:28:47.288Z,72.36
2019-01-20T07:31:19.758Z,72.35
2019-01-20T07:33:51.791Z,72.60
2019-01-20T07:36:23.625Z,72.51
2019-01-20T07:38:57.430Z,72.47
2019-01-20T07:41:29.270Z,72.22
2019-01-20T07:44:04.127Z,72.12
2019-01-20T07:46:35.986Z,71.81
2019-01-20T07:49:09.477Z,71.70
2019-01-20T07:51:41.344Z,72.14
2019-01-20T07:54:13.250Z,72.20
2019-01-20T07:56:45.150Z,72.29
2019-01-20T07:59:18.831Z,72.25
2019-01-20T08:01:50.682Z,72.10
2019-01-20T08:04:24.835Z,71.83
2019-01-20T08:06:56.696Z,71.35
2019-01-20T08:09:28.560Z,70.65
2019-01-20T08:12:01.617Z,70.10
2019-01-20T08:14:35.147Z,69.59
2019-01-20T08:17:08.978Z,69.45
2019-01-20T08:19:42.654Z,68.93
2019-01-20T08:22:14.498Z,69.37
2019-01-20T08:24:47.818Z,69.05
2019-01-20T08:27:19.669Z,68.81
2019-01-20T08:29:51.542Z,67.90
2019-01-20T08:32:27.991Z,67.85
2019-01-20T08:34:59.876Z,67.94
2019-01-20T08:37:34.315Z,68.92
2019-01-20T08:40:10.300Z,68.73
2019-01-20T08:42:44.467Z,68.11
2019-01-20T08:45:49.284Z,69.00
2019-01-20T08:48:22.729Z,69.51
2019-01-20T08:50:54.614Z,69.92
2019-01-20T08:53:26.499Z,69.60
2019-01-20T08:55:58.351Z,69.79
2019-01-20T08:58:30.234Z,70.50
2019-01-20T09:01:02.113Z,70.28
2019-01-20T09:03:33.979Z,70.17
2019-01-20T09:06:05.855Z,70.20
2019-01-20T09:08:37.739Z,69.85
2019-01-20T09:11:09.574Z,69.91
2019-01-20T09:13:41.735Z,69.93
2019-01-20T09:16:13.547Z,69.80
2019-01-20T09:18:45.386Z,69.58
2019-01-20T09:21:17.214Z,69.61
2019-01-20T09:23:49.072Z,68.17
2019-01-20T09:26:20.951Z,68.79
2019-01-20T09:28:52.782Z,68.59
2019-01-20T09:31:24.686Z,68.48
2019-01-20T09:33:56.649Z,67.91
2019-01-20T09:36:28.508Z,69.31
2019-01-20T09:39:00.339Z,69.84
2019-01-20T09:41:32.236Z,69.65
2019-01-20T09:44:04.166Z,69.74
2019-01-20T09:46:36.033Z,70.13
2019-01-20T09:49:07.890Z,69.68
2019-01-20T09:51:39.759Z,69.27
2019-01-20T09:54:11.604Z,69.29
2019-01-20T09:56:43.451Z,69.46
2019-01-20T09:59:15.339Z,69.79
2019-01-20T10:01:49.239Z,69.44
2019-01-20T10:04:21.078Z,69.83
2019-01-20T10:06:52.992Z,68.62
2019-01-20T10:09:24.845Z,68.98
2019-01-20T10:11:56.709Z,69.27
2019-01-20T10:14:28.570Z,68.99
2019-01-20T10:17:00.450Z,68.87
2019-01-20T10:19:32.306Z,68.79
2019-01-20T10:22:04.159Z,68.93
2019-01-20T10:24:37.115Z,68.39
2019-01-20T10:27:09.020Z,68.63
2019-01-20T10:29:40.959Z,68.69
2019-01-20T10:32:12.860Z,68.68
2019-01-20T10:34:45.229Z,69.63
2019-01-20T10:37:17.400Z,70.18
2019-01-20T10:39:49.351Z,69.80
2019-01-20T10:42:21.301Z,69.24
2019-01-20T10:44:53.185Z,68.69
2019-01-20T10:47:25.030Z,68.45
2019-01-20T10:49:56.906Z,68.98
2019-01-20T10:52:28.810Z,68.97
2019-01-20T10:55:00.678Z,69.32
2019-01-20T10:57:32.588Z,68.59
2019-01-20T11:00:07.538Z,67.86
2019-01-20T11:02:39.381Z,68.31
2019-01-20T11:05:11.695Z,68.11
2019-01-20T11:07:43.665Z,68.13
2019-01-20T11:10:17.152Z,68.18
2019-01-20T11:12:48.963Z,68.88
2019-01-20T11:15:21.788Z,68.62
2019-01-20T11:17:53.647Z,67.63
2019-01-20T11:20:25.952Z,67.61
2019-01-20T11:22:57.829Z,67.42
2019-01-20T11:25:33.493Z,67.72
2019-01-20T11:28:05.640Z,67.60
2019-01-20T11:30:37.497Z,67.60
2019-01-20T11:33:09.703Z,68.37
2019-01-20T11:35:41.638Z,67.93
2019-01-20T11:38:13.602Z,67.29
2019-01-20T11:40:45.459Z,67.09
2019-01-20T11:43:17.326Z,66.80
2019-01-20T11:45:49.164Z,67.46
2019-01-20T11:48:22.148Z,66.76
2019-01-20T11:50:54.001Z,66.19
2019-01-20T11:53:25.843Z,66.13
2019-01-20T11:55:57.813Z,66.19
2019-01-20T11:58:29.673Z,66.18
2019-01-20T12:01:01.570Z,66.10
2019-01-20T12:03:34.556Z,66.04
2019-01-20T12:06:07.696Z,66.23
2019-01-20T12:08:39.585Z,66.20
2019-01-20T12:11:11.429Z,65.43
2019-01-20T12:13:43.462Z,65.33
2019-01-20T12:16:15.336Z,65.36
2019-01-20T12:18:47.214Z,64.51
2019-01-20T12:21:19.103Z,64.99
2019-01-20T12:23:51.152Z,64.99
2019-01-20T12:26:22.998Z,64.18
2019-01-20T12:28:54.813Z,64.08
2019-01-20T12:31:26.708Z,64.12
2019-01-20T12:33:58.557Z,64.81
2019-01-20T12:36:30.409Z,64.95
2019-01-20T12:39:02.218Z,65.53
2019-01-20T12:41:34.174Z,65.09
2019-01-20T12:44:06.436Z,64.59
2019-01-20T12:46:38.283Z,64.95
2019-01-20T12:49:10.138Z,64.23
2019-01-20T12:51:42.433Z,64.26
2019-01-20T12:54:14.328Z,64.25
2019-01-20T12:56:47.350Z,62.24
2019-01-20T12:59:19.287Z,62.67
2019-01-20T13:01:51.264Z,62.15
2019-01-20T13:04:23.135Z,62.82
2019-01-20T13:06:55.010Z,62.52
2019-01-20T13:09:26.857Z,62.79
2019-01-20T13:11:58.740Z,63.02
2019-01-20T13:14:30.684Z,62.48
2019-01-20T13:17:02.663Z,62.77
2019-01-20T13:19:35.600Z,63.03
2019-01-20T13:22:07.475Z,62.90
2019-01-20T13:24:39.335Z,62.74
2019-01-20T13:27:11.193Z,63.19
2019-01-20T13:29:43.065Z,62.87
2019-01-20T13:32:16.065Z,63.15
2019-01-20T13:34:47.920Z,63.09
2019-01-20T13:37:19.761Z,63.21
2019-01-20T13:39:51.648Z,63.13
2019-01-20T13:42:23.500Z,63.01
2019-01-20T13:44:55.473Z,63.00
2019-01-20T13:47:27.337Z,63.21
2019-01-20T13:49:59.318Z,62.96
2019-01-20T13:52:31.177Z,62.98
2019-01-20T13:55:04.425Z,63.24
2019-01-20T13:57:36.290Z,62.65
2019-01-20T14:00:16.695Z,63.06
2019-01-20T14:02:49.600Z,63.28
2019-01-20T14:05:21.465Z,63.48
2019-01-20T14:07:53.394Z,63.79
2019-01-20T14:10:28.249Z,63.67
2019-01-20T14:13:00.147Z,64.20
2019-01-20T14:15:32.027Z,64.13
2019-01-20T14:18:03.964Z,64.33
2019-01-20T14:20:35.893Z,64.46
2019-01-20T14:23:07.758Z,64.63
2019-01-20T14:25:39.624Z,64.78
2019-01-20T14:28:11.486Z,64.91
2019-01-20T14:30:43.301Z,64.99
2019-01-20T14:33:15.201Z,65.34
2019-01-20T14:35:47.073Z,65.36
2019-01-20T14:38:18.931Z,65.02
2019-01-20T14:40:50.776Z,65.04
2019-01-20T14:43:22.673Z,65.39
2019-01-20T14:45:54.500Z,65.25
2019-01-20T14:48:26.364Z,65.67
2019-01-20T14:50:58.180Z,65.83
2019-01-20T14:53:30.073Z,66.16
2019-01-20T14:56:01.911Z,66.18
2019-01-20T14:58:33.779Z,66.54
2019-01-20T15:01:05.843Z,66.76
2019-01-20T15:03:37.728Z,66.89
2019-01-20T15:06:09.561Z,66.97
2019-01-20T15:08:41.417Z,67.01
2019-01-20T15:11:14.853Z,67.23
2019-01-20T15:13:46.716Z,67.42
2019-01-20T15:16:18.926Z,67.46
2019-01-20T15:18:50.774Z,67.39
2019-01-20T15:21:22.743Z,67.75
2019-01-20T15:23:54.603Z,67.98
2019-01-20T15:26:26.487Z,68.15
2019-01-20T15:28:59.986Z,68.25
2019-01-20T15:31:32.924Z,68.51
2019-01-20T15:34:08.877Z,68.70
2019-01-20T15:36:40.788Z,68.80
2019-01-20T15:39:12.690Z,68.85
2019-01-20T15:41:44.547Z,69.06
2019-01-20T15:44:16.409Z,69.34
2019-01-20T15:46:48.272Z,69.66
2019-01-20T15:49:20.152Z,69.23
2019-01-20T15:51:52.017Z,69.39
2019-01-20T15:54:23.880Z,69.53
2019-01-20T15:56:55.838Z,69.77
2019-01-20T15:59:27.671Z,69.87
2019-01-20T16:01:59.537Z,69.61
2019-01-20T16:04:31.447Z,69.93
2019-01-20T16:07:03.296Z,70.49
2019-01-20T16:09:35.156Z,70.37
2019-01-20T16:12:07.106Z,70.52
2019-01-20T16:14:38.972Z,70.27
2019-01-20T16:17:11.988Z,70.47
2019-01-20T16:19:44.052Z,70.48
2019-01-20T16:22:16.014Z,70.80
2019-01-20T16:24:47.884Z,71.05
2019-01-20T16:27:19.865Z,71.41
2019-01-20T16:29:51.722Z,71.57
2019-01-20T16:32:23.700Z,71.82
2019-01-20T16:34:56.851Z,72.01
2019-01-20T16:37:28.827Z,71.98
2019-01-20T16:40:02.276Z,72.02
2019-01-20T16:42:34.132Z,71.96
2019-01-20T16:45:08.018Z,72.33
2019-01-20T16:47:42.938Z,72.34
2019-01-20T16:50:19.134Z,72.13
2019-01-20T16:52:54.764Z,71.94
2019-01-20T16:55:25.642Z,71.97
2019-01-20T16:57:57.551Z,71.95
2019-01-20T17:00:32.238Z,71.91
2019-01-20T17:03:06.593Z,71.45
2019-01-20T17:05:38.485Z,71.14
2019-01-20T17:08:10.870Z,71.31
2019-01-20T17:10:44.268Z,71.04
2019-01-20T17:13:16.164Z,70.94
2019-01-20T17:15:48.465Z,71.02
2019-01-20T17:18:20.336Z,71.09
2019-01-20T17:20:52.219Z,70.88
2019-01-20T17:23:24.083Z,70.96
2019-01-20T17:25:59.803Z,70.91
2019-01-20T17:28:33.412Z,71.07
2019-01-20T17:31:06.337Z,70.95
2019-01-20T17:33:38.287Z,71.20
2019-01-20T17:36:10.168Z,71.42
2019-01-20T17:38:44.651Z,71.36
2019-01-20T17:41:22.083Z,71.34
2019-01-20T17:43:56.975Z,71.57
2019-01-20T17:46:30.472Z,71.65
2019-01-20T17:49:02.293Z,71.59
2019-01-20T17:51:42.049Z,71.60
2019-01-20T17:54:18.710Z,71.46
2019-01-20T17:56:52.328Z,71.42
2019-01-20T17:59:25.279Z,70.94
2019-01-20T18:01:57.130Z,71.02
2019-01-20T18:04:28.999Z,71.59
2019-01-20T18:07:01.145Z,71.63
2019-01-20T18:09:35.735Z,71.51
2019-01-20T18:12:07.614Z,71.41
2019-01-20T18:14:42.689Z,71.42
2019-01-20T18:17:17.193Z,71.38
2019-01-20T18:19:49.042Z,71.54
2019-01-20T18:22:32.275Z,71.53
2019-01-20T18:25:04.320Z,71.32
2019-01-20T18:27:38.977Z,71.47
2019-01-20T18:30:16.045Z,71.38
2019-01-20T18:32:47.937Z,71.59
2019-01-20T18:35:20.691Z,71.85
2019-01-20T18:37:52.566Z,71.68
2019-01-20T18:40:27.008Z,71.59
2019-01-20T18:42:58.856Z,71.91
2019-01-20T18:45:32.880Z,71.98
2019-01-20T18:48:04.839Z,72.12
2019-01-20T18:50:40.696Z,72.14
2019-01-20T18:53:12.551Z,72.35
2019-01-20T18:55:47.391Z,72.27
2019-01-20T18:58:23.425Z,72.27
2019-01-20T19:00:57.351Z,72.57
2019-01-20T19:03:29.196Z,72.73
2019-01-20T19:06:17.641Z,72.69
2019-01-20T19:08:52.516Z,72.52
2019-01-20T19:11:24.342Z,72.34
2019-01-20T19:13:56.188Z,72.29
2019-01-20T19:16:28.059Z,72.31
2019-01-20T19:19:03.468Z,72.51
2019-01-20T19:21:46.790Z,72.49
2019-01-20T19:24:22.621Z,72.27
2019-01-20T19:26:54.682Z,71.92
2019-01-20T19:29:28.584Z,71.63
2019-01-20T19:32:00.449Z,71.79
2019-01-20T19:34:33.822Z,71.76
2019-01-20T19:37:05.673Z,72.03
2019-01-20T19:39:38.651Z,72.10
2019-01-20T19:42:12.231Z,72.36
2019-01-20T19:44:44.108Z,72.28
2019-01-20T19:47:19.074Z,72.43
2019-01-20T19:49:50.943Z,72.52
2019-01-20T19:52:26.808Z,72.55
2019-01-20T19:54:58.686Z,72.56
2019-01-20T19:57:35.018Z,72.71
2019-01-20T20:00:17.602Z,72.64
2019-01-20T20:02:49.584Z,72.65
2019-01-20T20:05:23.548Z,72.75
2019-01-20T20:07:57.028Z,72.90
2019-01-20T20:10:33.377Z,73.07
2019-01-20T20:13:09.775Z,72.55
2019-01-20T20:15:41.686Z,72.58
2019-01-20T20:18:14.651Z,72.85
2019-01-20T20:20:48.167Z,72.93
2019-01-20T20:23:20.053Z,73.05
2019-01-20T20:25:53.915Z,73.14
2019-01-20T20:28:28.505Z,73.07
2019-01-20T20:31:03.502Z,72.79
2019-01-20T20:33:39.865Z,72.96
2019-01-20T20:36:16.450Z,73.01
2019-01-20T20:38:48.303Z,72.95
2019-01-20T20:41:20.362Z,73.17
2019-01-20T20:43:53.413Z,73.30
2019-01-20T20:46:30.575Z,73.36
2019-01-20T20:48:58.959Z,73.22
2019-01-20T20:51:30.850Z,73.46
2019-01-20T20:54:02.745Z,73.49
2019-01-20T20:56:38.601Z,73.43
2019-01-20T20:59:13.662Z,73.48
2019-01-20T21:01:49.570Z,73.58
2019-01-20T21:04:28.987Z,73.60
2019-01-20T21:06:59.464Z,73.77
2019-01-20T21:09:34.106Z,73.53
2019-01-20T21:12:11.514Z,73.74
2019-01-20T21:14:43.397Z,73.68
2019-01-20T21:17:17.959Z,73.62
2019-01-20T21:19:49.883Z,73.17
2019-01-20T21:22:24.869Z,73.36
2019-01-20T21:25:01.447Z,73.03
2019-01-20T21:27:33.320Z,73.39
2019-01-20T21:30:07.147Z,73.35
2019-01-20T21:32:41.774Z,73.23
2019-01-20T21:35:13.058Z,73.16
2019-01-20T21:37:44.920Z,73.10
2019-01-20T21:40:17.195Z,73.12
2019-01-20T21:42:51.519Z,73.30
2019-01-20T21:45:23.380Z,73.19
2019-01-20T21:47:55.217Z,72.98
2019-01-20T21:50:33.327Z,73.04
2019-01-20T21:53:07.406Z,73.07
2019-01-20T21:55:39.312Z,73.18
2019-01-20T21:58:12.690Z,72.95
2019-01-20T22:00:44.592Z,73.04
2019-01-20T22:03:26.466Z,73.12
2019-01-20T22:05:59.313Z,73.21
2019-01-20T22:08:31.144Z,73.09
2019-01-20T22:11:06.220Z,73.11
2019-01-20T22:13:41.243Z,73.17
2019-01-20T22:16:17.329Z,72.73
2019-01-20T22:18:49.204Z,72.48
2019-01-20T22:21:21.030Z,72.42
2019-01-20T22:23:56.788Z,72.19
2019-01-20T22:26:31.656Z,72.25
2019-01-20T22:29:04.614Z,72.44
2019-01-20T22:31:38.049Z,72.57
2019-01-20T22:34:09.987Z,72.51
2019-01-20T22:36:44.827Z,72.55
2019-01-20T22:39:17.790Z,72.58
2019-01-20T22:41:49.705Z,72.37
2019-01-20T22:44:25.513Z,72.55
2019-01-20T22:47:00.321Z,72.57
2019-01-20T22:49:35.549Z,72.32
2019-01-20T22:52:07.325Z,72.40
2019-01-20T22:54:41.170Z,72.34
2019-01-20T22:57:12.697Z,72.35
2019-01-20T22:59:47.315Z,72.47
2019-01-20T23:02:20.653Z,72.30
2019-01-20T23:04:57.320Z,72.12
2019-01-20T23:07:29.156Z,72.31
2019-01-20T23:10:02.182Z,72.55
2019-01-20T23:12:34.150Z,72.42
2019-01-20T23:15:06.355Z,72.35
2019-01-20T23:17:40.770Z,72.03
2019-01-20T23:20:19.331Z,71.97
2019-01-20T23:22:52.794Z,71.71
2019-01-20T23:25:24.609Z,71.93
2019-01-20T23:27:56.595Z,71.80
2019-01-20T23:30:29.703Z,71.92
2019-01-20T23:33:01.526Z,71.69
2019-01-20T23:35:36.491Z,71.59
2019-01-20T23:38:14.626Z,71.85
2019-01-20T23:40:48.966Z,71.79
2019-01-20T23:43:22.468Z,71.97
2019-01-20T23:45:54.648Z,71.89
2019-01-20T23:48:26.481Z,71.90
2019-01-20T23:51:02.765Z,71.89
2019-01-20T23:53:34.676Z,72.09
2019-01-20T23:56:06.852Z,72.04
2019-01-20T23:58:38.671Z,72.25
